sensor_id;sensor_type;location;lat;lon;timestamp;temperature;humidity
42755;DHT22;28407;51.830;5.684;2024-01-11T00:01:18;-0.40;62.00
42755;DHT22;28407;51.830;5.684;2024-01-11T00:03:21;-0.40;62.00
42755;DHT22;28407;51.830;5.684;2024-01-11T00:05:22;-0.40;62.00
42755;DHT22;28407;51.830;5.684;2024-01-11T00:07:23;-0.40;62.00
42755;DHT22;28407;51.830;5.684;2024-01-11T00:09:24;-0.40;62.10
42755;DHT22;28407;51.830;5.684;2024-01-11T00:11:24;-0.40;62.10
42755;DHT22;28407;51.830;5.684;2024-01-11T00:13:25;-0.40;62.10
42755;DHT22;28407;51.830;5.684;2024-01-11T00:15:26;-0.50;62.00
42755;DHT22;28407;51.830;5.684;2024-01-11T00:17:27;-0.50;62.10
42755;DHT22;28407;51.830;5.684;2024-01-11T00:19:27;-0.50;62.10
42755;DHT22;28407;51.830;5.684;2024-01-11T00:21:31;-0.50;62.10
42755;DHT22;28407;51.830;5.684;2024-01-11T00:23:32;-0.50;62.10
42755;DHT22;28407;51.830;5.684;2024-01-11T00:25:32;-0.50;62.10
42755;DHT22;28407;51.830;5.684;2024-01-11T00:27:33;-0.50;62.10
42755;DHT22;28407;51.830;5.684;2024-01-11T00:29:35;-0.50;62.20
42755;DHT22;28407;51.830;5.684;2024-01-11T00:31:36;-0.50;62.10
42755;DHT22;28407;51.830;5.684;2024-01-11T00:33:39;-0.50;62.20
42755;DHT22;28407;51.830;5.684;2024-01-11T00:35:39;-0.50;62.20
42755;DHT22;28407;51.830;5.684;2024-01-11T00:37:40;-0.50;62.20
42755;DHT22;28407;51.830;5.684;2024-01-11T00:39:41;-0.50;62.50
42755;DHT22;28407;51.830;5.684;2024-01-11T00:41:42;-0.50;62.20
42755;DHT22;28407;51.830;5.684;2024-01-11T00:43:43;-0.50;62.30
42755;DHT22;28407;51.830;5.684;2024-01-11T00:45:45;-0.50;62.30
42755;DHT22;28407;51.830;5.684;2024-01-11T00:47:46;-0.50;62.30
42755;DHT22;28407;51.830;5.684;2024-01-11T00:49:47;-0.50;62.30
42755;DHT22;28407;51.830;5.684;2024-01-11T00:51:47;-0.50;62.30
42755;DHT22;28407;51.830;5.684;2024-01-11T00:53:48;-0.50;62.30
42755;DHT22;28407;51.830;5.684;2024-01-11T00:55:49;-0.60;62.30
42755;DHT22;28407;51.830;5.684;2024-01-11T00:57:50;-0.50;62.40
42755;DHT22;28407;51.830;5.684;2024-01-11T00:59:51;-0.60;62.30
42755;DHT22;28407;51.830;5.684;2024-01-11T01:01:51;-0.60;62.30
42755;DHT22;28407;51.830;5.684;2024-01-11T01:03:52;-0.60;62.40
42755;DHT22;28407;51.830;5.684;2024-01-11T01:05:53;-0.60;62.40
42755;DHT22;28407;51.830;5.684;2024-01-11T01:07:54;-0.60;62.40
42755;DHT22;28407;51.830;5.684;2024-01-11T01:09:55;-0.60;62.50
42755;DHT22;28407;51.830;5.684;2024-01-11T01:11:55;-0.60;62.50
42755;DHT22;28407;51.830;5.684;2024-01-11T01:13:56;-0.60;62.50
42755;DHT22;28407;51.830;5.684;2024-01-11T01:15:57;-0.60;62.50
42755;DHT22;28407;51.830;5.684;2024-01-11T01:17:58;-0.60;62.50
42755;DHT22;28407;51.830;5.684;2024-01-11T01:19:59;-0.60;62.60
42755;DHT22;28407;51.830;5.684;2024-01-11T01:22:00;-0.60;62.50
42755;DHT22;28407;51.830;5.684;2024-01-11T01:24:00;-0.60;62.50
42755;DHT22;28407;51.830;5.684;2024-01-11T01:26:01;-0.70;62.50
42755;DHT22;28407;51.830;5.684;2024-01-11T01:28:02;-0.70;62.60
42755;DHT22;28407;51.830;5.684;2024-01-11T01:30:04;-0.70;62.60
42755;DHT22;28407;51.830;5.684;2024-01-11T01:32:05;-0.70;62.60
42755;DHT22;28407;51.830;5.684;2024-01-11T01:34:07;-0.70;62.70
42755;DHT22;28407;51.830;5.684;2024-01-11T01:36:08;-0.70;62.70
42755;DHT22;28407;51.830;5.684;2024-01-11T01:38:09;-0.70;62.80
42755;DHT22;28407;51.830;5.684;2024-01-11T01:40:11;-0.70;62.80
42755;DHT22;28407;51.830;5.684;2024-01-11T01:42:15;-0.80;62.80
42755;DHT22;28407;51.830;5.684;2024-01-11T01:44:16;-0.80;62.90
42755;DHT22;28407;51.830;5.684;2024-01-11T01:46:23;-0.80;63.00
42755;DHT22;28407;51.830;5.684;2024-01-11T01:48:24;-0.80;63.00
42755;DHT22;28407;51.830;5.684;2024-01-11T01:50:27;-0.80;63.10
42755;DHT22;28407;51.830;5.684;2024-01-11T01:52:29;-0.90;63.10
42755;DHT22;28407;51.830;5.684;2024-01-11T01:54:31;-0.90;63.20
42755;DHT22;28407;51.830;5.684;2024-01-11T01:56:32;-0.90;63.20
42755;DHT22;28407;51.830;5.684;2024-01-11T01:58:34;-0.90;63.30
42755;DHT22;28407;51.830;5.684;2024-01-11T02:00:36;-0.90;63.30
42755;DHT22;28407;51.830;5.684;2024-01-11T02:02:38;-0.90;63.40
42755;DHT22;28407;51.830;5.684;2024-01-11T02:04:40;-0.90;63.40
42755;DHT22;28407;51.830;5.684;2024-01-11T02:06:44;-0.90;63.40
42755;DHT22;28407;51.830;5.684;2024-01-11T02:08:53;-0.90;63.40
42755;DHT22;28407;51.830;5.684;2024-01-11T02:10:55;-0.90;63.40
42755;DHT22;28407;51.830;5.684;2024-01-11T02:12:57;-0.90;63.50
42755;DHT22;28407;51.830;5.684;2024-01-11T02:14:58;-0.90;63.50
42755;DHT22;28407;51.830;5.684;2024-01-11T02:16:59;-0.90;63.50
42755;DHT22;28407;51.830;5.684;2024-01-11T02:19:00;-1.00;63.50
42755;DHT22;28407;51.830;5.684;2024-01-11T02:21:01;-0.90;63.50
42755;DHT22;28407;51.830;5.684;2024-01-11T02:23:15;-1.00;63.50
42755;DHT22;28407;51.830;5.684;2024-01-11T02:25:17;-1.00;63.50
42755;DHT22;28407;51.830;5.684;2024-01-11T02:27:18;-1.00;63.50
42755;DHT22;28407;51.830;5.684;2024-01-11T02:29:19;-1.00;63.60
42755;DHT22;28407;51.830;5.684;2024-01-11T02:31:20;-1.00;63.60
42755;DHT22;28407;51.830;5.684;2024-01-11T02:33:21;-1.00;63.60
42755;DHT22;28407;51.830;5.684;2024-01-11T02:35:23;-1.00;63.60
42755;DHT22;28407;51.830;5.684;2024-01-11T02:37:25;-1.00;64.00
42755;DHT22;28407;51.830;5.684;2024-01-11T02:39:26;-1.00;63.60
42755;DHT22;28407;51.830;5.684;2024-01-11T02:41:28;-1.00;63.70
42755;DHT22;28407;51.830;5.684;2024-01-11T02:43:29;-1.00;63.60
42755;DHT22;28407;51.830;5.684;2024-01-11T02:45:29;-1.00;63.70
42755;DHT22;28407;51.830;5.684;2024-01-11T02:47:33;-1.00;63.70
42755;DHT22;28407;51.830;5.684;2024-01-11T02:49:34;-1.00;63.70
42755;DHT22;28407;51.830;5.684;2024-01-11T02:51:34;-1.10;63.70
42755;DHT22;28407;51.830;5.684;2024-01-11T02:53:36;-1.00;63.80
42755;DHT22;28407;51.830;5.684;2024-01-11T02:55:37;-1.10;63.80
42755;DHT22;28407;51.830;5.684;2024-01-11T02:57:40;-1.10;63.80
42755;DHT22;28407;51.830;5.684;2024-01-11T02:59:42;-1.10;63.90
42755;DHT22;28407;51.830;5.684;2024-01-11T03:01:43;-1.10;63.90
42755;DHT22;28407;51.830;5.684;2024-01-11T03:03:44;-1.10;64.00
42755;DHT22;28407;51.830;5.684;2024-01-11T03:05:45;-1.10;64.00
42755;DHT22;28407;51.830;5.684;2024-01-11T03:07:46;-1.20;64.00
42755;DHT22;28407;51.830;5.684;2024-01-11T03:09:46;-1.20;64.00
42755;DHT22;28407;51.830;5.684;2024-01-11T03:11:47;-1.20;64.10
42755;DHT22;28407;51.830;5.684;2024-01-11T03:13:50;-1.20;64.20
42755;DHT22;28407;51.830;5.684;2024-01-11T03:15:51;-1.30;64.80
42755;DHT22;28407;51.830;5.684;2024-01-11T03:17:52;-1.20;64.30
42755;DHT22;28407;51.830;5.684;2024-01-11T03:19:52;-1.30;64.30
42755;DHT22;28407;51.830;5.684;2024-01-11T03:21:53;-1.30;64.40
42755;DHT22;28407;51.830;5.684;2024-01-11T03:23:54;-1.30;64.50
42755;DHT22;28407;51.830;5.684;2024-01-11T03:25:55;-1.40;64.50
42755;DHT22;28407;51.830;5.684;2024-01-11T03:27:57;-1.40;64.60
42755;DHT22;28407;51.830;5.684;2024-01-11T03:29:58;-1.40;64.60
42755;DHT22;28407;51.830;5.684;2024-01-11T03:31:58;-1.50;64.70
42755;DHT22;28407;51.830;5.684;2024-01-11T03:33:59;-1.50;64.70
42755;DHT22;28407;51.830;5.684;2024-01-11T03:36:06;-1.50;64.70
42755;DHT22;28407;51.830;5.684;2024-01-11T03:38:09;-1.60;64.70
42755;DHT22;28407;51.830;5.684;2024-01-11T03:40:10;-1.50;64.80
42755;DHT22;28407;51.830;5.684;2024-01-11T03:42:11;-1.60;64.80
42755;DHT22;28407;51.830;5.684;2024-01-11T03:44:12;-1.60;64.90
42755;DHT22;28407;51.830;5.684;2024-01-11T03:46:13;-1.60;64.90
42755;DHT22;28407;51.830;5.684;2024-01-11T03:48:13;-1.60;65.00
42755;DHT22;28407;51.830;5.684;2024-01-11T03:50:17;-1.60;65.00
42755;DHT22;28407;51.830;5.684;2024-01-11T03:52:17;-1.60;65.00
42755;DHT22;28407;51.830;5.684;2024-01-11T03:54:18;-1.60;65.00
42755;DHT22;28407;51.830;5.684;2024-01-11T03:56:19;-1.60;65.00
42755;DHT22;28407;51.830;5.684;2024-01-11T03:58:20;-1.60;65.00
42755;DHT22;28407;51.830;5.684;2024-01-11T04:00:21;-1.60;65.00
42755;DHT22;28407;51.830;5.684;2024-01-11T04:02:22;-1.60;65.00
42755;DHT22;28407;51.830;5.684;2024-01-11T04:04:22;-1.60;65.00
42755;DHT22;28407;51.830;5.684;2024-01-11T04:06:23;-1.60;65.10
42755;DHT22;28407;51.830;5.684;2024-01-11T04:08:24;-1.60;65.10
42755;DHT22;28407;51.830;5.684;2024-01-11T04:10:25;-1.60;65.20
42755;DHT22;28407;51.830;5.684;2024-01-11T04:12:26;-1.60;65.20
42755;DHT22;28407;51.830;5.684;2024-01-11T04:14:27;-1.70;65.20
42755;DHT22;28407;51.830;5.684;2024-01-11T04:16:27;-1.70;65.30
42755;DHT22;28407;51.830;5.684;2024-01-11T04:18:28;-1.70;65.40
42755;DHT22;28407;51.830;5.684;2024-01-11T04:20:29;-1.70;65.40
42755;DHT22;28407;51.830;5.684;2024-01-11T04:22:30;-1.70;65.50
42755;DHT22;28407;51.830;5.684;2024-01-11T04:24:30;-1.70;65.50
42755;DHT22;28407;51.830;5.684;2024-01-11T04:26:31;-1.80;65.40
42755;DHT22;28407;51.830;5.684;2024-01-11T04:28:37;-1.80;65.50
42755;DHT22;28407;51.830;5.684;2024-01-11T04:30:40;-1.80;65.50
42755;DHT22;28407;51.830;5.684;2024-01-11T04:32:44;-1.70;65.60
42755;DHT22;28407;51.830;5.684;2024-01-11T04:34:45;-1.80;65.50
42755;DHT22;28407;51.830;5.684;2024-01-11T04:36:45;-1.80;65.50
42755;DHT22;28407;51.830;5.684;2024-01-11T04:38:49;-1.80;65.60
42755;DHT22;28407;51.830;5.684;2024-01-11T04:40:50;-1.90;65.60
42755;DHT22;28407;51.830;5.684;2024-01-11T04:42:51;-1.90;65.60
42755;DHT22;28407;51.830;5.684;2024-01-11T04:44:51;-1.90;65.70
42755;DHT22;28407;51.830;5.684;2024-01-11T04:46:52;-1.90;65.80
42755;DHT22;28407;51.830;5.684;2024-01-11T04:48:53;-1.90;65.80
42755;DHT22;28407;51.830;5.684;2024-01-11T04:50:54;-1.90;65.90
42755;DHT22;28407;51.830;5.684;2024-01-11T04:52:55;-1.90;65.90
42755;DHT22;28407;51.830;5.684;2024-01-11T04:54:55;-1.90;65.90
42755;DHT22;28407;51.830;5.684;2024-01-11T04:56:56;-1.90;65.90
42755;DHT22;28407;51.830;5.684;2024-01-11T04:58:57;-2.00;65.90
42755;DHT22;28407;51.830;5.684;2024-01-11T05:00:59;-2.00;66.00
42755;DHT22;28407;51.830;5.684;2024-01-11T05:03:00;-2.00;66.00
42755;DHT22;28407;51.830;5.684;2024-01-11T05:05:01;-2.00;66.00
42755;DHT22;28407;51.830;5.684;2024-01-11T05:07:01;-2.00;66.00
42755;DHT22;28407;51.830;5.684;2024-01-11T05:09:02;-2.00;66.10
42755;DHT22;28407;51.830;5.684;2024-01-11T05:11:05;-2.00;66.10
42755;DHT22;28407;51.830;5.684;2024-01-11T05:13:06;-2.00;66.10
42755;DHT22;28407;51.830;5.684;2024-01-11T05:15:06;-2.00;66.20
42755;DHT22;28407;51.830;5.684;2024-01-11T05:17:10;-2.00;66.10
42755;DHT22;28407;51.830;5.684;2024-01-11T05:19:11;-1.90;66.20
42755;DHT22;28407;51.830;5.684;2024-01-11T05:21:12;-2.00;66.20
42755;DHT22;28407;51.830;5.684;2024-01-11T05:23:12;-2.00;66.20
42755;DHT22;28407;51.830;5.684;2024-01-11T05:25:13;-2.00;66.20
42755;DHT22;28407;51.830;5.684;2024-01-11T05:27:14;-2.00;66.30
42755;DHT22;28407;51.830;5.684;2024-01-11T05:29:15;-2.00;66.30
42755;DHT22;28407;51.830;5.684;2024-01-11T05:31:16;-2.00;66.30
42755;DHT22;28407;51.830;5.684;2024-01-11T05:33:17;-2.00;66.40
42755;DHT22;28407;51.830;5.684;2024-01-11T05:35:20;-2.00;66.40
42755;DHT22;28407;51.830;5.684;2024-01-11T05:37:25;-2.00;66.50
42755;DHT22;28407;51.830;5.684;2024-01-11T05:39:26;-2.00;66.50
42755;DHT22;28407;51.830;5.684;2024-01-11T05:41:27;-2.00;66.60
42755;DHT22;28407;51.830;5.684;2024-01-11T05:43:27;-2.10;66.60
42755;DHT22;28407;51.830;5.684;2024-01-11T05:45:29;-2.10;66.60
42755;DHT22;28407;51.830;5.684;2024-01-11T05:47:29;-2.10;66.60
42755;DHT22;28407;51.830;5.684;2024-01-11T05:49:30;-2.10;66.60
42755;DHT22;28407;51.830;5.684;2024-01-11T05:51:31;-2.10;66.60
42755;DHT22;28407;51.830;5.684;2024-01-11T05:53:32;-2.10;66.70
42755;DHT22;28407;51.830;5.684;2024-01-11T05:55:35;-2.10;66.70
42755;DHT22;28407;51.830;5.684;2024-01-11T05:57:36;-2.10;66.80
42755;DHT22;28407;51.830;5.684;2024-01-11T05:59:37;-2.10;66.80
42755;DHT22;28407;51.830;5.684;2024-01-11T06:01:41;-2.20;66.80
42755;DHT22;28407;51.830;5.684;2024-01-11T06:03:45;-2.20;66.90
42755;DHT22;28407;51.830;5.684;2024-01-11T06:05:46;-2.20;66.90
42755;DHT22;28407;51.830;5.684;2024-01-11T06:07:47;-2.20;67.00
42755;DHT22;28407;51.830;5.684;2024-01-11T06:09:48;-2.20;67.00
42755;DHT22;28407;51.830;5.684;2024-01-11T06:11:49;-2.20;67.00
42755;DHT22;28407;51.830;5.684;2024-01-11T06:13:53;-2.20;67.40
42755;DHT22;28407;51.830;5.684;2024-01-11T06:15:54;-2.20;67.70
42755;DHT22;28407;51.830;5.684;2024-01-11T06:17:55;-2.20;67.10
42755;DHT22;28407;51.830;5.684;2024-01-11T06:19:56;-2.20;67.10
42755;DHT22;28407;51.830;5.684;2024-01-11T06:21:57;-2.20;67.10
42755;DHT22;28407;51.830;5.684;2024-01-11T06:23:57;-2.20;67.10
42755;DHT22;28407;51.830;5.684;2024-01-11T06:25:58;-2.30;67.10
42755;DHT22;28407;51.830;5.684;2024-01-11T06:27:59;-2.20;67.20
42755;DHT22;28407;51.830;5.684;2024-01-11T06:30:03;-2.20;67.20
42755;DHT22;28407;51.830;5.684;2024-01-11T06:32:07;-2.20;67.20
42755;DHT22;28407;51.830;5.684;2024-01-11T06:34:08;-2.20;67.20
42755;DHT22;28407;51.830;5.684;2024-01-11T06:36:09;-2.20;67.10
42755;DHT22;28407;51.830;5.684;2024-01-11T06:38:10;-2.20;67.20
42755;DHT22;28407;51.830;5.684;2024-01-11T06:40:13;-2.10;67.20
42755;DHT22;28407;51.830;5.684;2024-01-11T06:42:14;-2.10;67.20
42755;DHT22;28407;51.830;5.684;2024-01-11T06:44:15;-2.10;67.20
42755;DHT22;28407;51.830;5.684;2024-01-11T06:46:20;-2.10;67.30
42755;DHT22;28407;51.830;5.684;2024-01-11T06:48:21;-2.00;67.30
42755;DHT22;28407;51.830;5.684;2024-01-11T06:50:22;-2.00;67.20
42755;DHT22;28407;51.830;5.684;2024-01-11T06:52:23;-2.00;67.20
42755;DHT22;28407;51.830;5.684;2024-01-11T06:54:24;-2.00;67.20
42755;DHT22;28407;51.830;5.684;2024-01-11T06:56:24;-2.00;67.30
42755;DHT22;28407;51.830;5.684;2024-01-11T06:58:25;-2.00;67.30
42755;DHT22;28407;51.830;5.684;2024-01-11T07:00:26;-2.00;67.30
42755;DHT22;28407;51.830;5.684;2024-01-11T07:02:27;-1.90;67.40
42755;DHT22;28407;51.830;5.684;2024-01-11T07:04:27;-1.90;67.40
42755;DHT22;28407;51.830;5.684;2024-01-11T07:06:28;-1.90;67.40
42755;DHT22;28407;51.830;5.684;2024-01-11T07:08:29;-1.90;67.40
42755;DHT22;28407;51.830;5.684;2024-01-11T07:10:32;-1.90;67.40
42755;DHT22;28407;51.830;5.684;2024-01-11T07:12:33;-1.80;67.50
42755;DHT22;28407;51.830;5.684;2024-01-11T07:14:34;-1.80;67.40
42755;DHT22;28407;51.830;5.684;2024-01-11T07:16:36;-1.90;67.50
42755;DHT22;28407;51.830;5.684;2024-01-11T07:18:36;-1.80;67.60
42755;DHT22;28407;51.830;5.684;2024-01-11T07:20:37;-1.80;67.60
42755;DHT22;28407;51.830;5.684;2024-01-11T07:22:38;-1.80;67.70
42755;DHT22;28407;51.830;5.684;2024-01-11T07:24:38;-1.80;67.70
42755;DHT22;28407;51.830;5.684;2024-01-11T07:26:39;-1.80;67.60
42755;DHT22;28407;51.830;5.684;2024-01-11T07:28:40;-1.80;67.70
42755;DHT22;28407;51.830;5.684;2024-01-11T07:30:41;-1.80;67.70
42755;DHT22;28407;51.830;5.684;2024-01-11T07:32:41;-1.80;67.80
42755;DHT22;28407;51.830;5.684;2024-01-11T07:34:43;-1.80;67.70
42755;DHT22;28407;51.830;5.684;2024-01-11T07:36:44;-1.80;67.70
42755;DHT22;28407;51.830;5.684;2024-01-11T07:38:45;-1.80;67.80
42755;DHT22;28407;51.830;5.684;2024-01-11T07:40:45;-1.80;67.80
42755;DHT22;28407;51.830;5.684;2024-01-11T07:42:47;-1.80;67.90
42755;DHT22;28407;51.830;5.684;2024-01-11T07:44:47;-1.80;68.00
42755;DHT22;28407;51.830;5.684;2024-01-11T07:46:48;-1.80;68.00
42755;DHT22;28407;51.830;5.684;2024-01-11T07:48:49;-1.80;68.00
42755;DHT22;28407;51.830;5.684;2024-01-11T07:50:50;-1.80;68.10
42755;DHT22;28407;51.830;5.684;2024-01-11T07:52:51;-1.80;68.10
42755;DHT22;28407;51.830;5.684;2024-01-11T07:54:51;-1.80;68.10
42755;DHT22;28407;51.830;5.684;2024-01-11T07:56:54;-1.80;68.10
42755;DHT22;28407;51.830;5.684;2024-01-11T07:58:55;-1.80;68.20
42755;DHT22;28407;51.830;5.684;2024-01-11T08:00:55;-1.70;68.50
42755;DHT22;28407;51.830;5.684;2024-01-11T08:02:56;-1.50;68.70
42755;DHT22;28407;51.830;5.684;2024-01-11T08:04:57;-1.30;68.20
42755;DHT22;28407;51.830;5.684;2024-01-11T08:06:59;-1.20;67.90
42755;DHT22;28407;51.830;5.684;2024-01-11T08:09:00;-1.20;67.70
42755;DHT22;28407;51.830;5.684;2024-01-11T08:11:03;-1.20;67.70
42755;DHT22;28407;51.830;5.684;2024-01-11T08:13:04;-1.20;68.50
42755;DHT22;28407;51.830;5.684;2024-01-11T08:15:05;-1.30;67.90
42755;DHT22;28407;51.830;5.684;2024-01-11T08:17:06;-1.30;68.00
42755;DHT22;28407;51.830;5.684;2024-01-11T08:19:07;-1.30;68.10
42755;DHT22;28407;51.830;5.684;2024-01-11T08:21:07;-1.30;68.20
42755;DHT22;28407;51.830;5.684;2024-01-11T08:23:10;-1.30;68.30
42755;DHT22;28407;51.830;5.684;2024-01-11T08:25:10;-1.40;68.20
42755;DHT22;28407;51.830;5.684;2024-01-11T08:27:11;-1.40;68.30
42755;DHT22;28407;51.830;5.684;2024-01-11T08:29:13;-1.40;68.40
42755;DHT22;28407;51.830;5.684;2024-01-11T08:31:14;-1.30;68.40
42755;DHT22;28407;51.830;5.684;2024-01-11T08:33:15;-1.30;68.40
42755;DHT22;28407;51.830;5.684;2024-01-11T08:35:15;-1.30;68.40
42755;DHT22;28407;51.830;5.684;2024-01-11T08:37:20;-1.30;68.40
42755;DHT22;28407;51.830;5.684;2024-01-11T08:39:20;-1.30;68.40
42755;DHT22;28407;51.830;5.684;2024-01-11T08:41:22;-1.30;68.40
42755;DHT22;28407;51.830;5.684;2024-01-11T08:43:24;-1.30;68.40
42755;DHT22;28407;51.830;5.684;2024-01-11T08:45:25;-1.30;68.30
42755;DHT22;28407;51.830;5.684;2024-01-11T08:47:26;-1.20;68.40
42755;DHT22;28407;51.830;5.684;2024-01-11T08:49:26;-1.20;68.40
42755;DHT22;28407;51.830;5.684;2024-01-11T08:51:27;-1.20;68.40
42755;DHT22;28407;51.830;5.684;2024-01-11T08:53:28;-1.20;68.40
42755;DHT22;28407;51.830;5.684;2024-01-11T08:55:29;-1.20;68.40
42755;DHT22;28407;51.830;5.684;2024-01-11T08:57:30;-1.10;68.50
42755;DHT22;28407;51.830;5.684;2024-01-11T08:59:30;-1.10;68.40
42755;DHT22;28407;51.830;5.684;2024-01-11T09:01:31;-1.10;68.40
42755;DHT22;28407;51.830;5.684;2024-01-11T09:03:32;-1.00;68.40
42755;DHT22;28407;51.830;5.684;2024-01-11T09:05:33;-1.00;68.30
42755;DHT22;28407;51.830;5.684;2024-01-11T09:07:34;-1.00;68.30
42755;DHT22;28407;51.830;5.684;2024-01-11T09:09:35;-1.00;68.30
42755;DHT22;28407;51.830;5.684;2024-01-11T09:11:36;-0.90;68.40
42755;DHT22;28407;51.830;5.684;2024-01-11T09:13:37;-0.90;68.30
42755;DHT22;28407;51.830;5.684;2024-01-11T09:15:38;-0.90;68.30
42755;DHT22;28407;51.830;5.684;2024-01-11T09:17:39;-0.90;68.30
42755;DHT22;28407;51.830;5.684;2024-01-11T09:19:40;-0.90;68.30
42755;DHT22;28407;51.830;5.684;2024-01-11T09:21:41;-0.90;68.30
42755;DHT22;28407;51.830;5.684;2024-01-11T09:23:42;-0.90;68.40
42755;DHT22;28407;51.830;5.684;2024-01-11T09:25:43;-0.90;68.30
42755;DHT22;28407;51.830;5.684;2024-01-11T09:27:44;-0.90;68.30
42755;DHT22;28407;51.830;5.684;2024-01-11T09:29:45;-0.90;68.30
42755;DHT22;28407;51.830;5.684;2024-01-11T09:31:46;-0.90;68.30
42755;DHT22;28407;51.830;5.684;2024-01-11T09:33:47;-0.90;68.30
42755;DHT22;28407;51.830;5.684;2024-01-11T09:35:49;-0.90;68.30
42755;DHT22;28407;51.830;5.684;2024-01-11T09:37:50;-0.90;68.40
42755;DHT22;28407;51.830;5.684;2024-01-11T09:39:51;-0.90;68.40
42755;DHT22;28407;51.830;5.684;2024-01-11T09:42:04;-0.90;68.40
42755;DHT22;28407;51.830;5.684;2024-01-11T09:44:06;-0.80;68.40
42755;DHT22;28407;51.830;5.684;2024-01-11T09:46:09;-0.80;68.40
42755;DHT22;28407;51.830;5.684;2024-01-11T09:48:11;-0.80;68.30
42755;DHT22;28407;51.830;5.684;2024-01-11T09:50:14;-0.80;68.30
42755;DHT22;28407;51.830;5.684;2024-01-11T09:52:19;-0.80;68.30
42755;DHT22;28407;51.830;5.684;2024-01-11T09:54:21;-0.70;68.40
42755;DHT22;28407;51.830;5.684;2024-01-11T09:56:22;-0.70;68.40
42755;DHT22;28407;51.830;5.684;2024-01-11T09:58:24;-0.70;68.30
42755;DHT22;28407;51.830;5.684;2024-01-11T10:00:25;-0.70;68.30
42755;DHT22;28407;51.830;5.684;2024-01-11T10:02:26;-0.70;68.40
42755;DHT22;28407;51.830;5.684;2024-01-11T10:04:30;-0.80;68.30
42755;DHT22;28407;51.830;5.684;2024-01-11T10:06:32;-0.80;68.30
42755;DHT22;28407;51.830;5.684;2024-01-11T10:08:36;-0.70;68.40
42755;DHT22;28407;51.830;5.684;2024-01-11T10:10:36;-0.70;69.10
42755;DHT22;28407;51.830;5.684;2024-01-11T10:12:38;-0.70;68.40
42755;DHT22;28407;51.830;5.684;2024-01-11T10:14:39;-0.70;68.40
42755;DHT22;28407;51.830;5.684;2024-01-11T10:16:41;-0.70;68.40
42755;DHT22;28407;51.830;5.684;2024-01-11T10:18:43;-0.70;68.40
42755;DHT22;28407;51.830;5.684;2024-01-11T10:20:44;-0.70;68.40
42755;DHT22;28407;51.830;5.684;2024-01-11T10:22:46;-0.70;68.40
42755;DHT22;28407;51.830;5.684;2024-01-11T10:24:47;-0.60;68.40
42755;DHT22;28407;51.830;5.684;2024-01-11T10:26:48;-0.60;68.30
42755;DHT22;28407;51.830;5.684;2024-01-11T10:28:49;-0.60;68.30
42755;DHT22;28407;51.830;5.684;2024-01-11T10:30:51;-0.60;68.20
42755;DHT22;28407;51.830;5.684;2024-01-11T10:32:53;-0.60;68.20
42755;DHT22;28407;51.830;5.684;2024-01-11T10:34:54;-0.60;68.20
42755;DHT22;28407;51.830;5.684;2024-01-11T10:36:56;-0.50;68.20
42755;DHT22;28407;51.830;5.684;2024-01-11T10:39:01;-0.40;68.20
42755;DHT22;28407;51.830;5.684;2024-01-11T10:41:06;-0.50;68.10
42755;DHT22;28407;51.830;5.684;2024-01-11T10:43:09;-0.40;68.10
42755;DHT22;28407;51.830;5.684;2024-01-11T10:45:17;-0.40;68.10
42755;DHT22;28407;51.830;5.684;2024-01-11T10:47:20;-0.30;68.10
42755;DHT22;28407;51.830;5.684;2024-01-11T10:49:25;-0.30;68.10
42755;DHT22;28407;51.830;5.684;2024-01-11T10:51:28;-0.30;68.00
42755;DHT22;28407;51.830;5.684;2024-01-11T10:53:42;-0.30;68.00
42755;DHT22;28407;51.830;5.684;2024-01-11T10:55:45;-0.20;67.90
42755;DHT22;28407;51.830;5.684;2024-01-11T10:57:47;-0.20;68.50
42755;DHT22;28407;51.830;5.684;2024-01-11T10:59:48;-0.20;67.80
42755;DHT22;28407;51.830;5.684;2024-01-11T11:01:51;-0.20;67.90
42755;DHT22;28407;51.830;5.684;2024-01-11T11:03:55;-0.20;67.90
42755;DHT22;28407;51.830;5.684;2024-01-11T11:05:56;-0.20;67.90
42755;DHT22;28407;51.830;5.684;2024-01-11T11:08:01;-0.20;67.90
42755;DHT22;28407;51.830;5.684;2024-01-11T11:10:02;-0.20;67.90
42755;DHT22;28407;51.830;5.684;2024-01-11T11:12:07;-0.20;67.90
42755;DHT22;28407;51.830;5.684;2024-01-11T11:14:09;-0.20;67.90
42755;DHT22;28407;51.830;5.684;2024-01-11T11:16:10;-0.20;67.90
42755;DHT22;28407;51.830;5.684;2024-01-11T11:18:15;-0.20;68.00
42755;DHT22;28407;51.830;5.684;2024-01-11T11:20:16;-0.10;68.00
42755;DHT22;28407;51.830;5.684;2024-01-11T11:22:17;-0.10;67.90
42755;DHT22;28407;51.830;5.684;2024-01-11T11:24:20;0.00;67.90
42755;DHT22;28407;51.830;5.684;2024-01-11T11:26:20;0.00;67.90
42755;DHT22;28407;51.830;5.684;2024-01-11T11:28:21;0.00;67.80
42755;DHT22;28407;51.830;5.684;2024-01-11T11:30:22;0.10;67.80
42755;DHT22;28407;51.830;5.684;2024-01-11T11:32:38;0.10;67.70
42755;DHT22;28407;51.830;5.684;2024-01-11T11:34:43;0.10;67.80
42755;DHT22;28407;51.830;5.684;2024-01-11T11:36:46;0.10;67.80
42755;DHT22;28407;51.830;5.684;2024-01-11T11:38:47;0.20;68.00
42755;DHT22;28407;51.830;5.684;2024-01-11T11:40:48;0.20;68.00
42755;DHT22;28407;51.830;5.684;2024-01-11T11:42:50;0.20;68.00
42755;DHT22;28407;51.830;5.684;2024-01-11T11:44:51;0.20;68.10
42755;DHT22;28407;51.830;5.684;2024-01-11T11:46:52;0.20;68.10
42755;DHT22;28407;51.830;5.684;2024-01-11T11:48:53;0.20;68.00
42755;DHT22;28407;51.830;5.684;2024-01-11T11:53:10;0.30;68.20
42755;DHT22;28407;51.830;5.684;2024-01-11T11:55:12;0.40;68.30
42755;DHT22;28407;51.830;5.684;2024-01-11T11:57:16;0.40;68.40
42755;DHT22;28407;51.830;5.684;2024-01-11T11:59:20;0.40;68.50
42755;DHT22;28407;51.830;5.684;2024-01-11T12:01:21;0.50;68.90
42755;DHT22;28407;51.830;5.684;2024-01-11T12:03:28;0.40;69.70
42755;DHT22;28407;51.830;5.684;2024-01-11T12:05:29;0.50;69.30
42755;DHT22;28407;51.830;5.684;2024-01-11T12:07:30;0.40;69.50
42755;DHT22;28407;51.830;5.684;2024-01-11T12:09:31;0.40;69.70
42755;DHT22;28407;51.830;5.684;2024-01-11T12:11:32;0.40;69.90
42755;DHT22;28407;51.830;5.684;2024-01-11T12:13:34;0.40;70.10
42755;DHT22;28407;51.830;5.684;2024-01-11T12:15:35;0.40;70.20
42755;DHT22;28407;51.830;5.684;2024-01-11T12:17:35;0.50;70.30
42755;DHT22;28407;51.830;5.684;2024-01-11T12:19:36;0.50;70.40
42755;DHT22;28407;51.830;5.684;2024-01-11T12:21:37;0.50;70.40
42755;DHT22;28407;51.830;5.684;2024-01-11T12:23:38;0.50;70.60
42755;DHT22;28407;51.830;5.684;2024-01-11T12:25:40;0.50;70.70
42755;DHT22;28407;51.830;5.684;2024-01-11T12:27:44;0.50;70.80
42755;DHT22;28407;51.830;5.684;2024-01-11T12:29:45;0.50;70.80
42755;DHT22;28407;51.830;5.684;2024-01-11T12:31:46;0.60;70.90
42755;DHT22;28407;51.830;5.684;2024-01-11T12:33:47;0.60;70.90
42755;DHT22;28407;51.830;5.684;2024-01-11T12:35:49;0.60;70.90
42755;DHT22;28407;51.830;5.684;2024-01-11T12:38:00;0.70;70.90
42755;DHT22;28407;51.830;5.684;2024-01-11T12:40:01;0.70;71.00
42755;DHT22;28407;51.830;5.684;2024-01-11T12:42:02;0.80;71.00
42755;DHT22;28407;51.830;5.684;2024-01-11T12:44:02;0.80;71.00
42755;DHT22;28407;51.830;5.684;2024-01-11T12:46:06;0.80;71.10
42755;DHT22;28407;51.830;5.684;2024-01-11T12:48:08;0.80;71.10
42755;DHT22;28407;51.830;5.684;2024-01-11T12:50:09;0.90;71.20
42755;DHT22;28407;51.830;5.684;2024-01-11T12:52:16;0.90;71.20